Time;durP1;ratioP1;P1;durP2;ratioP2;P2;SDS_P1;SDS_P2;PMS_P1;PMS_P2;Temp;Humidity;BMP_temperature;BMP_pressure;BME280_temperature;BME280_humidity;BME280_pressure;Samples;Min_cycle;Max_cycle;Signal;HPM_P1;HPM_P2
2021/01/12 00:00:11;;;;;;;45.17;22.65;;;-1.80;73.30;;;;;;4997193;28;20460;-62
2021/01/12 00:02:36;;;;;;;48.40;23.70;;;-1.70;73.30;;;;;;4992996;28;20053;-62
2021/01/12 00:05:04;;;;;;;42.03;22.05;;;-1.70;73.30;;;;;;4995815;28;20102;-62
2021/01/12 00:07:29;;;;;;;42.58;21.80;;;-1.70;73.30;;;;;;4995116;28;20141;-61
2021/01/12 00:09:55;;;;;;;46.10;23.02;;;-1.60;73.30;;;;;;4996290;28;20561;-60
2021/01/12 00:12:20;;;;;;;42.38;21.92;;;-1.60;73.30;;;;;;4993471;28;20049;-63
2021/01/12 00:14:47;;;;;;;44.15;22.90;;;-1.60;73.30;;;;;;4995856;28;20084;-62
2021/01/12 00:17:13;;;;;;;44.75;22.85;;;-1.50;73.30;;;;;;4996969;28;20235;-62
2021/01/12 00:19:39;;;;;;;42.55;23.02;;;-1.50;73.20;;;;;;4996980;28;20488;-62
2021/01/12 00:22:24;;;;;;;45.28;23.40;;;-1.50;73.10;;;;;;4996747;28;20038;-60
2021/01/12 00:24:51;;;;;;;42.35;21.90;;;-1.50;72.90;;;;;;4997042;28;20395;-62
2021/01/12 00:27:20;;;;;;;44.90;23.42;;;-1.50;72.90;;;;;;4994443;28;20062;-61
2021/01/12 00:29:46;;;;;;;46.88;24.27;;;-1.50;72.90;;;;;;4996205;28;20100;-61
2021/01/12 00:32:18;;;;;;;46.35;23.15;;;-1.50;72.80;;;;;;4994129;28;20084;-62
2021/01/12 00:34:43;;;;;;;47.10;24.02;;;-1.50;72.90;;;;;;4993050;28;20065;-61
2021/01/12 00:37:09;;;;;;;47.83;24.02;;;-1.60;72.90;;;;;;4993053;28;20096;-62
2021/01/12 00:39:35;;;;;;;47.28;24.08;;;-1.60;72.90;;;;;;4996922;28;20030;-62
2021/01/12 00:42:01;;;;;;;42.75;24.05;;;-1.60;73.80;;;;;;4995766;28;20034;-62
2021/01/12 00:44:27;;;;;;;43.58;23.25;;;-1.60;72.90;;;;;;4995831;28;20040;-61
2021/01/12 00:46:53;;;;;;;44.70;22.95;;;-1.50;73.10;;;;;;4998378;28;20042;-61
2021/01/12 00:49:21;;;;;;;45.53;22.30;;;-1.60;72.90;;;;;;4997920;28;20636;-61
2021/01/12 00:51:47;;;;;;;43.95;23.67;;;-1.50;72.90;;;;;;4999571;28;20668;-61
2021/01/12 00:54:15;;;;;;;44.47;23.73;;;-1.50;72.80;;;;;;4998599;28;20057;-61
2021/01/12 00:56:41;;;;;;;48.88;23.77;;;-1.50;72.80;;;;;;4996957;28;20049;-63
2021/01/12 00:59:06;;;;;;;48.35;24.77;;;-1.60;72.60;;;;;;4996357;28;20038;-62
2021/01/12 01:01:33;;;;;;;44.70;23.33;;;-1.60;72.60;;;;;;4995750;28;20887;-59
2021/01/12 01:03:59;;;;;;;47.90;24.25;;;-1.60;72.60;;;;;;4997384;28;20085;-61
2021/01/12 01:06:25;;;;;;;50.67;25.17;;;-1.70;72.60;;;;;;4999149;28;20022;-62
2021/01/12 01:08:51;;;;;;;45.95;24.23;;;-1.70;72.70;;;;;;4999418;28;20026;-61
2021/01/12 01:11:17;;;;;;;46.92;24.63;;;-1.70;72.80;;;;;;4994365;28;20034;-61
2021/01/12 01:13:43;;;;;;;48.38;25.52;;;-1.80;72.80;;;;;;4997658;28;20026;-60
2021/01/12 01:16:09;;;;;;;46.20;23.65;;;-1.80;72.90;;;;;;4999764;28;20125;-62
2021/01/12 01:18:35;;;;;;;47.65;24.05;;;-1.80;73.00;;;;;;4997650;28;20121;-62
2021/01/12 01:21:01;;;;;;;51.08;24.20;;;-1.90;73.00;;;;;;4999034;28;20042;-62
2021/01/12 01:23:26;;;;;;;45.05;23.48;;;-1.90;73.00;;;;;;5014542;28;20458;-63
2021/01/12 01:25:52;;;;;;;45.53;23.00;;;-1.90;73.10;;;;;;4999004;28;20601;-61
2021/01/12 01:28:22;;;;;;;46.22;24.45;;;-1.90;73.10;;;;;;4996716;28;20046;-61
2021/01/12 01:30:49;;;;;;;43.28;22.90;;;-1.90;73.10;;;;;;5003327;28;20087;-62
2021/01/12 01:33:15;;;;;;;44.13;22.80;;;-1.90;73.20;;;;;;5000759;28;20034;-61
2021/01/12 01:35:44;;;;;;;49.72;24.55;;;-2.00;73.10;;;;;;4997667;28;20454;-62
2021/01/12 01:38:10;;;;;;;52.00;25.50;;;-2.00;73.20;;;;;;4996468;28;20050;-63
2021/01/12 01:40:35;;;;;;;50.22;24.75;;;-2.00;73.30;;;;;;4998532;28;20034;-61
2021/01/12 01:43:01;;;;;;;50.92;25.45;;;-2.00;73.30;;;;;;5012493;28;20038;-61
2021/01/12 01:45:26;;;;;;;47.88;24.88;;;-2.10;73.30;;;;;;4998170;28;20045;-62
2021/01/12 01:47:52;;;;;;;51.92;25.15;;;-2.10;73.40;;;;;;4997475;28;20034;-62
2021/01/12 01:50:20;;;;;;;48.17;24.80;;;-2.10;73.60;;;;;;4998066;28;20524;-63
2021/01/12 01:52:54;;;;;;;48.63;24.90;;;-2.10;73.60;;;;;;4994512;28;20585;-62
2021/01/12 01:55:22;;;;;;;51.25;25.92;;;-2.10;73.70;;;;;;4997872;28;20038;-61
2021/01/12 01:57:47;;;;;;;50.53;24.92;;;-2.20;73.60;;;;;;4997247;28;20405;-62
2021/01/12 02:00:16;;;;;;;48.30;24.35;;;-2.10;73.70;;;;;;4993549;28;20045;-61
2021/01/12 02:02:54;;;;;;;49.30;24.50;;;-2.10;73.80;;;;;;4998333;28;20117;-62
2021/01/12 02:05:28;;;;;;;53.90;24.98;;;-2.10;73.90;;;;;;4996201;28;20379;-61
2021/01/12 02:07:58;;;;;;;54.75;25.25;;;-2.10;73.90;;;;;;5012892;28;20045;-62
2021/01/12 02:10:25;;;;;;;47.38;24.25;;;-2.10;73.90;;;;;;4994917;28;20076;-60
2021/01/12 02:13:00;;;;;;;52.28;25.10;;;-2.10;73.90;;;;;;4996085;28;20026;-61
2021/01/12 02:15:27;;;;;;;45.15;24.13;;;-2.10;74.00;;;;;;4997247;28;20890;-58
2021/01/12 02:17:53;;;;;;;43.90;23.58;;;-2.10;74.00;;;;;;4996893;28;20056;-62
2021/01/12 02:20:22;;;;;;;47.88;24.75;;;-2.10;74.10;;;;;;4997369;28;20064;-61
2021/01/12 02:23:34;;;;;;;46.67;24.33;;;-2.10;74.10;;;;;;4994791;28;20536;-62
2021/01/12 02:26:01;;;;;;;50.83;25.27;;;-2.10;74.30;;;;;;4995365;28;20050;-62
2021/01/12 02:28:27;;;;;;;49.45;24.60;;;-2.00;74.10;;;;;;4991133;28;20062;-61
2021/01/12 02:30:52;;;;;;;46.35;23.48;;;-2.00;74.10;;;;;;4993938;28;20112;-62
2021/01/12 02:33:18;;;;;;;47.25;24.83;;;-2.00;74.10;;;;;;4999083;28;20033;-59
2021/01/12 02:35:47;;;;;;;48.78;23.90;;;-1.90;74.50;;;;;;4997335;28;20038;-61
2021/01/12 02:38:14;;;;;;;48.25;24.25;;;-1.90;75.00;;;;;;4994082;28;20489;-61
2021/01/12 02:40:40;;;;;;;49.03;25.05;;;-1.90;74.10;;;;;;4998201;28;20529;-62
2021/01/12 02:43:05;;;;;;;46.30;24.90;;;-1.80;74.10;;;;;;4997902;28;20034;-61
2021/01/12 02:45:31;;;;;;;48.05;24.30;;;-1.80;74.00;;;;;;4997274;28;20157;-61
2021/01/12 02:47:58;;;;;;;48.53;25.08;;;-1.80;74.00;;;;;;4998472;28;20128;-59
2021/01/12 02:50:24;;;;;;;49.25;24.58;;;-1.80;74.00;;;;;;4996406;28;20092;-63
2021/01/12 02:52:50;;;;;;;53.17;24.85;;;-1.80;74.00;;;;;;4996558;28;20026;-59
2021/01/12 02:55:15;;;;;;;44.40;23.80;;;-1.80;74.00;;;;;;4996742;28;20048;-61
2021/01/12 02:57:41;;;;;;;47.60;24.73;;;-1.80;73.90;;;;;;4997675;28;20168;-62
2021/01/12 03:00:12;;;;;;;44.92;24.30;;;-1.70;74.00;;;;;;4994898;28;20057;-62
2021/01/12 03:02:38;;;;;;;47.55;25.25;;;-1.70;74.00;;;;;;4996336;28;20034;-61
2021/01/12 03:05:06;;;;;;;47.13;24.77;;;-1.70;73.90;;;;;;4995078;28;20116;-61
2021/01/12 03:07:32;;;;;;;50.75;24.75;;;-1.70;74.00;;;;;;4995375;28;20111;-63
2021/01/12 03:09:57;;;;;;;47.15;24.05;;;-1.70;74.00;;;;;;4998282;28;20561;-60
2021/01/12 03:12:24;;;;;;;48.38;26.05;;;-1.70;74.00;;;;;;4993302;28;20042;-62
2021/01/12 03:14:49;;;;;;;46.72;24.45;;;-1.70;74.00;;;;;;4997652;28;20044;-62
2021/01/12 03:17:15;;;;;;;47.55;24.33;;;-1.70;74.00;;;;;;4996386;28;20413;-61
2021/01/12 03:19:41;;;;;;;49.05;24.63;;;-1.60;74.00;;;;;;4997176;28;20049;-61
2021/01/12 03:22:08;;;;;;;44.55;22.83;;;-1.60;74.00;;;;;;4995624;28;20037;-60
2021/01/12 03:24:34;;;;;;;49.30;24.85;;;-1.60;74.00;;;;;;4997321;28;20049;-61
2021/01/12 03:27:00;;;;;;;46.95;24.20;;;-1.60;74.00;;;;;;4995448;28;20045;-62
2021/01/12 03:29:25;;;;;;;46.60;23.85;;;-1.60;74.00;;;;;;4997454;28;20425;-62
2021/01/12 03:31:51;;;;;;;44.95;23.63;;;-1.60;74.00;;;;;;4995286;28;20049;-61
2021/01/12 03:34:17;;;;;;;46.35;25.05;;;-1.60;74.00;;;;;;4996702;28;20026;-62
2021/01/12 03:36:42;;;;;;;50.30;24.55;;;-1.50;74.00;;;;;;4996380;28;20034;-62
2021/01/12 03:39:08;;;;;;;46.50;23.98;;;-1.50;74.00;;;;;;4996347;28;20517;-62
2021/01/12 03:41:34;;;;;;;44.33;22.83;;;-1.50;74.00;;;;;;4997246;28;20049;-62
2021/01/12 03:44:00;;;;;;;43.63;23.40;;;-1.50;74.10;;;;;;4993053;28;20635;-59
2021/01/12 03:46:25;;;;;;;44.08;22.98;;;-1.50;74.00;;;;;;4997640;28;20034;-60
2021/01/12 03:48:52;;;;;;;49.08;24.10;;;-1.50;74.10;;;;;;4994529;28;20456;-61
2021/01/12 03:51:19;;;;;;;47.33;23.55;;;-1.50;74.00;;;;;;4992131;28;20030;-61
2021/01/12 03:53:44;;;;;;;44.13;22.58;;;-1.40;74.10;;;;;;4995982;28;20026;-62
2021/01/12 03:56:13;;;;;;;45.40;23.92;;;-1.40;74.00;;;;;;4995455;28;20030;-62
2021/01/12 03:58:39;;;;;;;42.88;21.85;;;-1.40;74.00;;;;;;4994437;28;20077;-62
2021/01/12 04:01:05;;;;;;;45.03;23.33;;;-1.40;74.00;;;;;;4993884;28;20121;-62
2021/01/12 04:03:30;;;;;;;45.60;23.10;;;-1.40;74.00;;;;;;4997703;28;20197;-62
2021/01/12 04:05:59;;;;;;;43.42;22.17;;;-1.40;74.00;;;;;;4996334;28;20057;-62
2021/01/12 04:08:25;;;;;;;45.42;22.45;;;-1.40;74.00;;;;;;4997287;28;20038;-62
2021/01/12 04:10:50;;;;;;;45.40;23.60;;;-1.30;74.00;;;;;;4991839;28;20041;-61
2021/01/12 04:13:16;;;;;;;44.00;22.50;;;-1.30;74.00;;;;;;4997624;28;20038;-60
2021/01/12 04:15:41;;;;;;;47.40;23.20;;;-1.30;74.00;;;;;;4997687;28;20559;-60
2021/01/12 04:18:07;;;;;;;46.22;22.08;;;-1.30;74.00;;;;;;4994729;28;20035;-62
2021/01/12 04:20:32;;;;;;;42.92;22.25;;;-1.30;74.10;;;;;;4993297;28;20042;-62
2021/01/12 04:22:58;;;;;;;41.05;22.35;;;-1.30;74.10;;;;;;4998786;28;20062;-61
2021/01/12 04:25:24;;;;;;;46.75;23.83;;;-1.30;74.10;;;;;;5000747;28;20034;-60
2021/01/12 04:27:49;;;;;;;83.70;37.30;;;-1.20;74.30;;;;;;4998203;28;20052;-61
2021/01/12 04:30:15;;;;;;;49.15;25.23;;;-1.30;74.20;;;;;;4997962;28;20060;-62
2021/01/12 04:32:41;;;;;;;41.63;21.65;;;-1.20;74.30;;;;;;4994061;28;20041;-62
2021/01/12 04:35:07;;;;;;;43.67;22.25;;;-1.20;74.30;;;;;;4998567;28;20095;-62
2021/01/12 04:37:33;;;;;;;43.58;21.48;;;-1.20;74.30;;;;;;4996503;28;20104;-61
2021/01/12 04:39:58;;;;;;;43.30;22.42;;;-1.20;74.30;;;;;;4993981;28;20042;-61
2021/01/12 04:42:31;;;;;;;41.70;21.15;;;-1.20;74.40;;;;;;4998514;28;20070;-62
2021/01/12 04:45:01;;;;;;;38.50;21.02;;;-1.10;74.50;;;;;;4997708;28;20041;-58
2021/01/12 04:47:26;;;;;;;38.72;20.92;;;-1.10;74.50;;;;;;4997649;28;20038;-62
2021/01/12 04:49:53;;;;;;;39.47;21.42;;;-1.10;74.50;;;;;;4994341;28;20100;-61
2021/01/12 04:52:19;;;;;;;41.20;22.00;;;-1.10;74.50;;;;;;4996812;28;20112;-62
2021/01/12 04:54:45;;;;;;;41.90;21.45;;;-1.00;74.50;;;;;;4997839;28;20490;-62
2021/01/12 04:57:13;;;;;;;38.38;20.33;;;-1.00;74.50;;;;;;4994908;28;20042;-62
2021/01/12 04:59:39;;;;;;;38.38;20.48;;;-1.00;74.50;;;;;;4997152;28;20573;-62
2021/01/12 05:02:06;;;;;;;35.22;18.55;;;-0.90;74.50;;;;;;4995006;28;20070;-62
2021/01/12 05:04:36;;;;;;;35.97;18.58;;;-0.90;74.50;;;;;;4997690;28;20197;-62
2021/01/12 05:07:05;;;;;;;36.35;18.98;;;-0.90;74.50;;;;;;4999321;28;20026;-63
2021/01/12 05:09:33;;;;;;;33.33;17.95;;;-0.90;74.50;;;;;;4998431;28;21994;-60
2021/01/12 05:12:00;;;;;;;34.53;18.33;;;-0.90;74.50;;;;;;4993394;28;20038;-61
2021/01/12 05:14:28;;;;;;;36.58;19.50;;;-0.90;74.60;;;;;;4997904;28;20102;-62
2021/01/12 05:16:55;;;;;;;35.83;19.17;;;-0.80;74.80;;;;;;4999702;28;20037;-60
2021/01/12 05:19:35;;;;;;;38.17;20.27;;;-0.80;74.70;;;;;;5000081;28;20076;-61
2021/01/12 05:22:04;;;;;;;33.83;18.58;;;-0.80;75.00;;;;;;4993956;28;20038;-62
2021/01/12 05:24:40;;;;;;;36.90;19.42;;;-0.80;75.10;;;;;;4993659;28;20071;-61
2021/01/12 05:27:07;;;;;;;35.90;18.08;;;-0.70;75.20;;;;;;4999518;28;20035;-62
2021/01/12 05:29:34;;;;;;;37.90;17.38;;;-0.70;75.20;;;;;;4998165;28;20054;-62
2021/01/12 05:32:03;;;;;;;32.78;17.25;;;-0.70;75.30;;;;;;4997363;28;20512;-62
2021/01/12 05:34:34;;;;;;;30.33;16.55;;;-0.70;75.30;;;;;;4997823;28;20034;-62
2021/01/12 05:37:03;;;;;;;30.30;15.75;;;-0.60;75.60;;;;;;4997130;28;20115;-61
2021/01/12 05:39:34;;;;;;;32.38;15.80;;;-0.60;75.70;;;;;;4997631;28;20040;-63
2021/01/12 05:42:05;;;;;;;30.90;15.95;;;-0.60;75.70;;;;;;4997955;28;20069;-62
2021/01/12 05:44:35;;;;;;;28.30;15.75;;;-0.50;75.90;;;;;;4998163;28;20042;-62
2021/01/12 05:47:00;;;;;;;32.13;16.38;;;-0.50;75.90;;;;;;4998832;28;20487;-61
2021/01/12 05:49:26;;;;;;;29.67;16.25;;;-0.40;76.00;;;;;;4997417;28;20023;-62
2021/01/12 05:51:52;;;;;;;28.58;15.93;;;-0.40;76.20;;;;;;4999571;28;20064;-62
2021/01/12 05:54:26;;;;;;;30.40;15.82;;;-0.40;76.10;;;;;;4998788;28;20061;-62
2021/01/12 05:57:03;;;;;;;25.98;14.95;;;-0.30;76.40;;;;;;4998678;28;20101;-61
2021/01/12 05:59:31;;;;;;;30.35;15.50;;;-0.30;76.40;;;;;;4999923;28;20037;-62
2021/01/12 06:02:06;;;;;;;29.58;15.95;;;-0.30;76.40;;;;;;4999257;28;20037;-62
2021/01/12 06:04:33;;;;;;;27.85;15.27;;;-0.20;76.60;;;;;;4997895;28;20042;-62
2021/01/12 06:07:00;;;;;;;30.15;15.60;;;-0.20;76.70;;;;;;4998219;28;20585;-60
2021/01/12 06:09:26;;;;;;;29.25;15.68;;;-0.20;76.70;;;;;;4998172;28;20037;-62
2021/01/12 06:11:56;;;;;;;30.25;16.38;;;-0.10;76.70;;;;;;4997868;28;20060;-61
2021/01/12 06:14:24;;;;;;;26.92;15.05;;;-0.10;76.90;;;;;;4998887;28;20069;-62
2021/01/12 06:16:50;;;;;;;27.50;15.05;;;0.00;76.80;;;;;;4996886;28;20030;-62
2021/01/12 06:19:23;;;;;;;28.33;15.30;;;0.00;76.90;;;;;;5005225;28;20022;-63
2021/01/12 06:21:54;;;;;;;26.88;14.27;;;0.10;76.90;;;;;;4997246;28;20022;-62
2021/01/12 06:24:25;;;;;;;27.00;14.15;;;0.10;76.70;;;;;;4999274;28;20035;-62
2021/01/12 06:26:53;;;;;;;26.40;13.75;;;0.20;76.70;;;;;;4998748;28;20502;-62
2021/01/12 06:29:19;;;;;;;28.92;14.40;;;0.20;77.50;;;;;;4998536;28;20030;-61
2021/01/12 06:31:46;;;;;;;25.55;13.23;;;0.30;76.60;;;;;;4998627;28;20093;-62
2021/01/12 06:34:16;;;;;;;29.08;14.50;;;0.30;76.60;;;;;;4999358;28;20034;-62
2021/01/12 06:36:47;;;;;;;23.77;13.70;;;0.30;76.40;;;;;;4998429;28;20034;-62
2021/01/12 06:39:15;;;;;;;23.30;13.27;;;0.40;76.40;;;;;;4999731;28;20026;-63
2021/01/12 06:41:43;;;;;;;24.90;14.30;;;0.40;76.40;;;;;;5001146;28;20121;-61
2021/01/12 06:44:21;;;;;;;23.25;12.73;;;0.50;76.40;;;;;;4997052;28;21059;-62
2021/01/12 06:46:49;;;;;;;26.75;15.10;;;0.50;76.30;;;;;;4998432;28;20076;-62
2021/01/12 06:49:34;;;;;;;25.05;13.98;;;0.50;76.40;;;;;;4998239;28;20175;-63
2021/01/12 06:52:07;;;;;;;21.27;11.57;;;0.60;77.40;;;;;;4998150;28;20418;-62
2021/01/12 06:54:38;;;;;;;25.63;14.02;;;0.60;76.40;;;;;;4997516;28;20627;-62
2021/01/12 06:57:06;;;;;;;23.73;13.15;;;0.60;76.30;;;;;;4997175;28;20034;-62
2021/01/12 06:59:36;;;;;;;26.05;13.07;;;0.70;76.20;;;;;;4998785;28;20455;-62
2021/01/12 07:02:18;;;;;;;23.55;13.85;;;0.70;76.20;;;;;;4998192;28;20065;-62
2021/01/12 07:05:05;;;;;;;26.80;13.93;;;0.80;76.20;;;;;;5009947;28;20201;-62
2021/01/12 07:07:32;;;;;;;26.42;13.68;;;0.80;76.20;;;;;;4997447;28;20030;-62
2021/01/12 07:10:11;;;;;;;24.10;13.02;;;0.80;76.10;;;;;;4998259;28;20038;-63
2021/01/12 07:12:38;;;;;;;24.75;13.55;;;0.80;76.10;;;;;;4994564;28;20056;-62
2021/01/12 07:15:10;;;;;;;24.40;13.13;;;0.80;76.10;;;;;;4997290;28;20062;-62
2021/01/12 07:17:41;;;;;;;25.33;13.52;;;0.90;76.30;;;;;;4997104;28;20092;-62
2021/01/12 07:20:14;;;;;;;25.27;12.90;;;0.90;76.40;;;;;;4998126;28;20033;-62
2021/01/12 07:22:50;;;;;;;23.45;13.02;;;0.90;76.40;;;;;;4997021;28;20039;-63
2021/01/12 07:25:20;;;;;;;22.05;13.00;;;0.90;76.30;;;;;;4998202;28;20038;-63
2021/01/12 07:28:02;;;;;;;25.45;14.13;;;1.00;76.40;;;;;;4997072;28;20030;-63
2021/01/12 07:30:29;;;;;;;23.17;12.82;;;1.00;76.50;;;;;;4995366;28;20036;-62
2021/01/12 07:33:03;;;;;;;22.90;12.75;;;1.00;76.40;;;;;;4996097;28;20129;-62
2021/01/12 07:35:32;;;;;;;20.85;12.35;;;1.10;76.40;;;;;;4998017;28;20034;-62
2021/01/12 07:37:58;;;;;;;22.90;13.07;;;1.10;76.40;;;;;;4998438;28;20034;-63
2021/01/12 07:40:24;;;;;;;23.17;12.55;;;1.10;76.40;;;;;;5010924;28;20409;-61
2021/01/12 07:42:54;;;;;;;20.17;11.52;;;1.10;76.40;;;;;;4997023;28;20034;-61
2021/01/12 07:45:31;;;;;;;22.58;12.20;;;1.10;76.40;;;;;;4997447;28;20038;-61
2021/01/12 07:47:59;;;;;;;23.77;12.90;;;1.20;76.40;;;;;;4997014;28;20038;-62
2021/01/12 07:50:27;;;;;;;23.52;12.30;;;1.20;76.40;;;;;;4995663;28;20168;-61
2021/01/12 07:52:54;;;;;;;20.35;11.80;;;1.20;76.60;;;;;;4997676;28;20038;-62
2021/01/12 07:55:20;;;;;;;25.50;13.02;;;1.30;76.60;;;;;;4998909;28;20049;-63
2021/01/12 07:57:48;;;;;;;22.83;12.57;;;1.30;76.80;;;;;;4999747;28;20497;-62
2021/01/12 08:00:16;;;;;;;24.73;13.20;;;1.30;76.90;;;;;;5001248;28;20405;-62
2021/01/12 08:02:49;;;;;;;22.90;13.13;;;1.30;77.00;;;;;;4991852;28;20040;-62
2021/01/12 08:05:18;;;;;;;22.27;12.95;;;1.30;77.30;;;;;;5001693;28;20588;-63
2021/01/12 08:07:44;;;;;;;23.38;13.02;;;1.30;77.30;;;;;;4999920;28;20048;-61
2021/01/12 08:10:10;;;;;;;22.58;12.90;;;1.30;77.30;;;;;;5001757;28;20045;-62
2021/01/12 08:12:36;;;;;;;24.13;12.85;;;1.30;77.30;;;;;;5000202;28;20374;-62
2021/01/12 08:15:13;;;;;;;22.45;13.10;;;1.30;77.40;;;;;;5002026;28;20053;-63
2021/01/12 08:17:49;;;;;;;23.60;12.38;;;1.20;77.80;;;;;;5000402;28;20037;-63
2021/01/12 08:20:17;;;;;;;26.70;13.43;;;1.20;78.00;;;;;;5000857;28;20030;-62
2021/01/12 08:22:53;;;;;;;23.35;13.18;;;1.20;78.00;;;;;;5000636;28;20034;-62
2021/01/12 08:25:19;;;;;;;26.15;13.40;;;1.20;78.30;;;;;;5001727;28;20030;-63
2021/01/12 08:27:49;;;;;;;23.50;12.73;;;1.20;78.20;;;;;;4998588;28;20044;-63
2021/01/12 08:30:21;;;;;;;22.95;12.82;;;1.20;78.60;;;;;;5001791;28;20081;-62
2021/01/12 08:33:01;;;;;;;25.33;12.65;;;1.20;78.80;;;;;;4999204;28;20089;-63
2021/01/12 08:35:31;;;;;;;23.73;12.80;;;1.20;78.80;;;;;;5002293;28;20065;-62
2021/01/12 08:37:58;;;;;;;20.23;11.50;;;1.20;79.00;;;;;;4999828;28;20073;-62
2021/01/12 08:40:28;;;;;;;23.63;13.40;;;1.20;79.30;;;;;;5006887;28;20586;-62
2021/01/12 08:42:54;;;;;;;23.77;12.27;;;1.20;79.40;;;;;;5001219;28;20432;-63
2021/01/12 08:45:20;;;;;;;23.35;13.00;;;1.20;79.50;;;;;;5001482;28;20038;-63
2021/01/12 08:47:46;;;;;;;24.23;12.43;;;1.20;79.50;;;;;;5000919;28;20061;-62
2021/01/12 08:50:13;;;;;;;26.85;13.40;;;1.20;79.70;;;;;;5000633;28;20029;-61
2021/01/12 08:52:44;;;;;;;25.33;14.07;;;1.20;80.40;;;;;;5000211;28;20038;-63
2021/01/12 08:55:21;;;;;;;21.60;12.18;;;1.20;81.10;;;;;;5001674;28;20103;-64
2021/01/12 08:58:00;;;;;;;25.17;13.60;;;1.20;81.10;;;;;;5000449;28;20025;-63
2021/01/12 09:00:34;;;;;;;25.48;13.52;;;1.20;81.60;;;;;;5000091;28;20457;-63
2021/01/12 09:03:00;;;;;;;23.60;12.73;;;1.20;81.50;;;;;;5013469;28;21465;-63
2021/01/12 09:05:27;;;;;;;24.83;13.80;;;1.20;81.60;;;;;;5001361;28;20081;-63
2021/01/12 09:08:01;;;;;;;22.65;12.52;;;1.20;81.50;;;;;;5000318;28;20545;-62
2021/01/12 09:10:27;;;;;;;;;;;1.20;81.40;;;;;;4998532;28;21094;-62
2021/01/12 09:12:54;;;;;;;23.67;11.93;;;1.20;81.30;;;;;;5001303;28;20001;-62
2021/01/12 09:15:25;;;;;;;21.75;12.23;;;1.20;80.90;;;;;;4999870;28;20067;-63
2021/01/12 09:18:03;;;;;;;22.08;11.45;;;1.30;80.90;;;;;;4998540;28;20034;-63
2021/01/12 09:20:29;;;;;;;24.83;13.30;;;1.30;80.80;;;;;;4999956;28;20189;-63
2021/01/12 09:23:05;;;;;;;22.13;12.27;;;1.30;80.90;;;;;;5001485;28;20038;-63
2021/01/12 09:25:32;;;;;;;21.70;11.73;;;1.30;80.80;;;;;;4999724;28;20030;-64
2021/01/12 09:28:12;;;;;;;21.60;11.85;;;1.30;80.60;;;;;;5000203;28;20034;-63
2021/01/12 09:30:38;;;;;;;20.58;11.27;;;1.40;80.50;;;;;;4998633;28;20049;-63
2021/01/12 09:33:04;;;;;;;21.00;11.90;;;1.40;80.60;;;;;;5000880;28;20035;-63
2021/01/12 09:35:31;;;;;;;20.55;10.43;;;1.40;80.40;;;;;;5001160;28;20038;-63
2021/01/12 09:38:00;;;;;;;20.13;10.40;;;1.50;80.40;;;;;;5000153;28;20038;-63
2021/01/12 09:40:26;;;;;;;16.75;10.13;;;1.50;80.20;;;;;;4999775;28;20573;-63
2021/01/12 09:42:52;;;;;;;17.10;9.95;;;1.50;80.10;;;;;;4999928;28;20049;-63
2021/01/12 09:45:19;;;;;;;18.98;10.52;;;1.60;80.00;;;;;;5000096;28;20049;-63
2021/01/12 09:47:45;;;;;;;17.02;9.65;;;1.60;79.80;;;;;;4999366;28;20034;-63
2021/01/12 09:50:12;;;;;;;16.90;9.30;;;1.70;79.70;;;;;;4999950;28;20034;-63
2021/01/12 09:52:37;;;;;;;15.90;9.70;;;1.70;79.50;;;;;;4997534;28;20080;-62
2021/01/12 09:55:04;;;;;;;16.48;9.43;;;1.70;79.50;;;;;;5000281;28;20045;-63
2021/01/12 09:57:30;;;;;;;17.05;9.40;;;1.80;79.50;;;;;;4999695;28;20053;-63
2021/01/12 09:59:55;;;;;;;17.58;9.75;;;1.80;79.30;;;;;;4999581;28;20080;-63
2021/01/12 10:02:21;;;;;;;15.30;9.45;;;1.80;79.30;;;;;;5011645;28;20620;-64
2021/01/12 10:04:46;;;;;;;18.52;10.02;;;1.80;79.20;;;;;;4999398;28;20037;-63
2021/01/12 10:07:12;;;;;;;14.50;8.77;;;1.90;79.00;;;;;;4999222;28;20038;-63
2021/01/12 10:09:38;;;;;;;14.90;8.98;;;1.90;78.60;;;;;;5000161;28;20030;-62
2021/01/12 10:12:04;;;;;;;16.40;9.98;;;1.90;78.60;;;;;;4996689;28;20129;-63
2021/01/12 10:14:30;;;;;;;15.70;8.55;;;1.90;78.50;;;;;;4998598;28;20452;-63
2021/01/12 10:16:56;;;;;;;18.50;9.52;;;1.90;79.20;;;;;;4998185;28;20913;-62
2021/01/12 10:19:22;;;;;;;14.82;8.98;;;2.00;79.20;;;;;;4997301;28;20077;-63
2021/01/12 10:21:48;;;;;;;16.02;8.90;;;2.00;78.20;;;;;;4998272;28;20037;-62
2021/01/12 10:24:14;;;;;;;16.88;8.85;;;2.00;78.30;;;;;;4999042;28;20485;-63
2021/01/12 10:26:40;;;;;;;15.48;9.10;;;2.00;78.30;;;;;;4999044;28;20050;-63
2021/01/12 10:29:06;;;;;;;16.98;9.90;;;2.00;78.20;;;;;;4997011;28;20038;-62
2021/01/12 10:31:35;;;;;;;17.13;9.57;;;2.00;78.00;;;;;;4999251;28;20040;-62
2021/01/12 10:34:01;;;;;;;16.30;9.15;;;2.10;78.10;;;;;;4998978;28;20097;-63
2021/01/12 10:36:26;;;;;;;16.52;9.68;;;2.10;78.00;;;;;;4999661;28;20034;-63
2021/01/12 10:38:52;;;;;;;15.40;9.13;;;2.10;77.80;;;;;;4998577;28;20042;-63
2021/01/12 10:41:24;;;;;;;15.82;9.10;;;2.10;77.80;;;;;;5061453;27;20468;-65
2021/01/12 10:43:55;;;;;;;14.68;8.07;;;2.10;77.60;;;;;;5051463;28;20071;-65
2021/01/12 10:46:21;;;;;;;16.23;8.95;;;2.20;77.60;;;;;;5034664;28;20028;-64
2021/01/12 10:48:46;;;;;;;18.30;9.52;;;2.20;77.50;;;;;;5033019;28;20630;-64
2021/01/12 10:51:12;;;;;;;15.77;8.70;;;2.20;77.30;;;;;;5035318;28;20570;-65
2021/01/12 10:53:38;;;;;;;21.02;9.43;;;2.30;77.30;;;;;;5033952;28;20077;-65
2021/01/12 10:56:03;;;;;;;17.35;9.05;;;2.30;77.30;;;;;;5035847;28;20033;-65
2021/01/12 10:58:29;;;;;;;17.13;9.73;;;2.30;77.30;;;;;;5031822;28;20042;-64
2021/01/12 11:00:55;;;;;;;16.95;10.30;;;2.40;77.10;;;;;;5033381;28;20428;-65
2021/01/12 11:03:21;;;;;;;16.30;9.15;;;2.40;77.00;;;;;;5034437;28;20034;-65
2021/01/12 11:05:53;;;;;;;18.55;9.90;;;2.40;76.90;;;;;;5034026;28;20045;-64
2021/01/12 11:08:19;;;;;;;13.82;9.13;;;2.40;76.70;;;;;;5034502;28;20509;-64
2021/01/12 11:10:45;;;;;;;14.73;9.20;;;2.50;76.70;;;;;;5028802;28;20036;-65
2021/01/12 11:13:11;;;;;;;18.48;10.57;;;2.50;76.80;;;;;;5014802;28;20045;-63
2021/01/12 11:15:42;;;;;;;21.77;11.32;;;2.50;76.70;;;;;;5024236;28;20140;-64
2021/01/12 11:18:08;;;;;;;17.35;9.90;;;2.50;76.60;;;;;;5018272;28;20522;-65
2021/01/12 11:20:34;;;;;;;21.00;11.52;;;2.50;76.70;;;;;;5013176;28;20038;-64
2021/01/12 11:22:59;;;;;;;23.08;12.38;;;2.50;76.70;;;;;;5014149;28;20026;-64
2021/01/12 11:25:26;;;;;;;18.08;10.20;;;2.50;76.70;;;;;;5014563;28;20030;-63
2021/01/12 11:27:51;;;;;;;17.85;9.70;;;2.60;76.80;;;;;;5014939;28;20346;-64
2021/01/12 11:30:18;;;;;;;17.85;10.43;;;2.60;76.70;;;;;;5014308;28;20042;-64
2021/01/12 11:32:44;;;;;;;18.73;10.02;;;2.60;76.70;;;;;;5013469;28;20361;-63
2021/01/12 11:35:10;;;;;;;17.80;10.00;;;2.60;76.90;;;;;;5013951;28;20030;-65
2021/01/12 11:37:36;;;;;;;18.55;10.55;;;2.60;76.90;;;;;;5014560;28;20563;-63
2021/01/12 11:40:03;;;;;;;22.15;11.90;;;2.60;76.90;;;;;;5013622;28;20540;-64
2021/01/12 11:42:29;;;;;;;19.60;10.48;;;2.60;77.00;;;;;;5012479;28;20029;-62
2021/01/12 11:44:55;;;;;;;17.60;10.45;;;2.60;77.10;;;;;;5013713;28;20037;-64
2021/01/12 11:47:20;;;;;;;18.20;10.18;;;2.60;77.20;;;;;;5013104;28;20042;-64
2021/01/12 11:49:48;;;;;;;16.40;9.90;;;2.60;77.40;;;;;;5014056;28;20036;-63
2021/01/12 11:52:16;;;;;;;16.25;10.07;;;2.70;77.60;;;;;;5003058;28;20525;-62
2021/01/12 11:54:41;;;;;;;23.80;10.80;;;2.60;77.90;;;;;;5000572;28;20100;-63
2021/01/12 11:57:09;;;;;;;17.35;10.25;;;2.70;78.10;;;;;;5000584;28;20030;-64
2021/01/12 11:59:35;;;;;;;23.23;11.90;;;2.70;78.30;;;;;;5000205;28;20140;-64
2021/01/12 12:02:01;;;;;;;20.98;10.02;;;2.60;78.20;;;;;;4998374;28;20034;-64
2021/01/12 12:04:27;;;;;;;22.00;11.23;;;2.60;78.30;;;;;;4999574;28;20041;-64
2021/01/12 12:07:02;;;;;;;18.30;9.80;;;2.60;78.50;;;;;;5000189;28;20032;-62
2021/01/12 12:09:28;;;;;;;;;;;2.60;78.60;;;;;;5000209;28;20360;-64
2021/01/12 12:11:54;;;;;;;18.45;9.85;;;2.70;79.00;;;;;;5027020;28;19919;-64
2021/01/12 12:14:20;;;;;;;18.50;9.73;;;2.70;78.80;;;;;;5018829;28;20479;-64
2021/01/12 12:16:48;;;;;;;14.90;9.20;;;2.70;78.90;;;;;;5018638;28;20045;-64
2021/01/12 12:19:15;;;;;;;14.05;8.55;;;2.70;79.00;;;;;;5019684;28;20159;-64
2021/01/12 12:21:49;;;;;;;15.05;8.70;;;2.60;79.30;;;;;;5019143;28;20460;-64
2021/01/12 12:24:15;;;;;;;14.68;8.63;;;2.60;79.90;;;;;;5019828;28;20445;-63
2021/01/12 12:26:46;;;;;;;15.48;8.10;;;2.70;79.80;;;;;;5019188;28;20065;-63
2021/01/12 12:29:12;;;;;;;14.98;8.43;;;2.70;80.00;;;;;;5020240;28;20032;-63
2021/01/12 12:31:37;;;;;;;14.40;8.38;;;2.70;80.10;;;;;;5019074;28;20065;-64
2021/01/12 12:34:04;;;;;;;13.85;7.38;;;2.70;80.60;;;;;;5017837;28;20185;-64
2021/01/12 12:36:30;;;;;;;15.63;7.82;;;2.70;80.70;;;;;;5019555;28;20045;-64